Time;durP1;ratioP1;P1;durP2;ratioP2;P2;SDS_P1;SDS_P2;PMS_P1;PMS_P2;Temp;Humidity;BMP_temperature;BMP_pressure;BME280_temperature;BME280_humidity;BME280_pressure;Samples;Min_cycle;Max_cycle;Signal;HPM_P1;HPM_P2
2022/03/01 00:02:17;;;;;;;23.08;13.15;;;1.50;97.40;;;;;;5014399;28;20120;-52
2022/03/01 00:04:43;;;;;;;20.38;12.48;;;1.50;97.50;;;;;;5032408;28;20523;-54
2022/03/01 00:07:08;;;;;;;20.42;12.68;;;1.50;97.30;;;;;;5034545;28;20128;-54
2022/03/01 00:09:35;;;;;;;25.05;13.65;;;1.50;97.40;;;;;;5030892;28;20160;-53
2022/03/01 00:12:00;;;;;;;20.02;12.95;;;1.40;97.50;;;;;;5014458;28;20037;-50
2022/03/01 00:14:26;;;;;;;21.58;13.05;;;1.40;97.50;;;;;;5014060;28;20038;-55
2022/03/01 00:16:54;;;;;;;21.00;13.55;;;1.50;97.40;;;;;;5014248;28;20034;-55
2022/03/01 00:19:19;;;;;;;22.80;13.10;;;1.50;97.40;;;;;;5013953;28;20060;-58
2022/03/01 00:21:45;;;;;;;23.25;14.10;;;1.40;97.60;;;;;;5014288;28;20029;-49
2022/03/01 00:24:10;;;;;;;22.88;13.05;;;1.40;97.70;;;;;;5013947;28;20121;-53
2022/03/01 00:26:36;;;;;;;24.73;13.77;;;1.40;97.60;;;;;;5027000;28;20069;-53
2022/03/01 00:29:02;;;;;;;27.00;14.98;;;1.50;97.60;;;;;;5033186;28;20714;-55
2022/03/01 00:31:27;;;;;;;22.30;13.23;;;1.50;97.40;;;;;;5034095;28;20061;-53
2022/03/01 00:33:53;;;;;;;21.08;12.75;;;1.50;97.30;;;;;;5033917;28;20026;-54
2022/03/01 00:36:18;;;;;;;22.92;14.07;;;1.50;97.30;;;;;;5033491;28;20092;-52
2022/03/01 00:38:44;;;;;;;24.88;13.45;;;1.50;97.40;;;;;;5033359;28;20033;-53
2022/03/01 00:41:09;;;;;;;25.10;13.57;;;1.50;97.50;;;;;;5027683;28;20029;-54
2022/03/01 00:43:35;;;;;;;24.17;13.38;;;1.50;97.40;;;;;;5013587;28;20040;-56
2022/03/01 00:46:01;;;;;;;22.77;14.38;;;1.50;97.40;;;;;;5013602;28;20033;-53
2022/03/01 00:48:26;;;;;;;25.48;13.90;;;1.60;97.40;;;;;;5013347;28;20511;-55
2022/03/01 00:50:52;;;;;;;24.05;14.55;;;1.60;97.40;;;;;;5013930;28;20097;-54
2022/03/01 00:53:17;;;;;;;22.20;13.55;;;1.60;97.00;;;;;;5012374;28;20113;-56
2022/03/01 00:55:43;;;;;;;22.45;14.52;;;1.60;97.30;;;;;;5014245;28;20033;-56
2022/03/01 00:58:08;;;;;;;22.38;13.60;;;1.50;97.20;;;;;;5019941;28;20096;-55
2022/03/01 01:00:35;;;;;;;20.80;14.48;;;1.50;97.20;;;;;;5014238;28;20490;-56
2022/03/01 01:03:02;;;;;;;22.58;13.50;;;1.50;97.20;;;;;;5018911;28;20076;-50
2022/03/01 01:05:27;;;;;;;22.02;13.35;;;1.50;97.10;;;;;;5033857;28;20029;-54
2022/03/01 01:07:53;;;;;;;24.33;12.77;;;1.50;97.00;;;;;;5033970;28;20060;-53
2022/03/01 01:10:20;;;;;;;23.77;13.02;;;1.60;96.90;;;;;;5033954;28;20028;-51
2022/03/01 01:12:46;;;;;;;19.10;12.85;;;1.50;97.00;;;;;;5033980;28;20444;-52
2022/03/01 01:15:12;;;;;;;24.70;13.52;;;1.50;96.80;;;;;;5016576;28;20034;-55
2022/03/01 01:17:38;;;;;;;22.70;12.55;;;1.50;96.80;;;;;;5034972;28;20492;-55
2022/03/01 01:20:06;;;;;;;19.08;11.40;;;1.50;96.30;;;;;;5034288;28;20041;-51
2022/03/01 01:22:41;;;;;;;17.65;11.32;;;1.50;96.10;;;;;;5017283;28;20679;-53
2022/03/01 01:25:08;;;;;;;22.73;12.30;;;1.40;96.20;;;;;;5034018;28;20128;-54
2022/03/01 01:27:34;;;;;;;21.50;12.10;;;1.50;96.00;;;;;;5033333;28;20473;-51
2022/03/01 01:30:00;;;;;;;20.52;11.80;;;1.50;95.70;;;;;;5033423;28;20034;-50
2022/03/01 01:32:26;;;;;;;18.42;11.55;;;1.50;95.70;;;;;;5015480;28;20162;-51
2022/03/01 01:34:52;;;;;;;20.33;11.00;;;1.40;95.60;;;;;;5032902;28;20034;-54
2022/03/01 01:37:18;;;;;;;20.60;11.88;;;1.50;95.50;;;;;;5033010;28;20028;-55
2022/03/01 01:39:44;;;;;;;20.77;11.82;;;1.50;95.20;;;;;;5033050;28;20120;-56
2022/03/01 01:42:09;;;;;;;18.00;10.85;;;1.50;95.20;;;;;;5018509;28;20092;-54
2022/03/01 01:44:35;;;;;;;20.35;12.55;;;1.50;95.30;;;;;;5012893;28;20421;-56
2022/03/01 01:47:00;;;;;;;19.63;11.30;;;1.50;95.00;;;;;;4995879;28;20091;-54
2022/03/01 01:49:26;;;;;;;17.55;11.05;;;1.50;94.90;;;;;;5013276;28;20057;-55
2022/03/01 01:51:53;;;;;;;19.42;11.40;;;1.50;94.90;;;;;;5012529;28;20026;-53
2022/03/01 01:54:18;;;;;;;15.63;10.45;;;1.50;94.90;;;;;;5013678;28;20045;-54
2022/03/01 01:56:44;;;;;;;16.88;11.30;;;1.50;94.90;;;;;;5013639;28;20045;-57
2022/03/01 01:59:09;;;;;;;17.77;10.98;;;1.60;94.70;;;;;;5013491;28;20046;-54
2022/03/01 02:01:35;;;;;;;19.33;11.40;;;1.50;94.60;;;;;;5013608;28;20128;-51
2022/03/01 02:04:01;;;;;;;19.23;10.40;;;1.50;94.70;;;;;;5024640;28;20104;-52
2022/03/01 02:06:27;;;;;;;20.15;11.05;;;1.50;94.60;;;;;;5032553;28;20025;-53
2022/03/01 02:08:53;;;;;;;18.00;11.18;;;1.40;94.80;;;;;;5032705;28;20049;-51
2022/03/01 02:11:19;;;;;;;16.15;9.77;;;1.40;94.80;;;;;;5033572;28;20038;-52
2022/03/01 02:13:44;;;;;;;16.25;9.93;;;1.40;94.80;;;;;;5033154;28;20033;-54
2022/03/01 02:16:10;;;;;;;19.70;9.93;;;1.40;94.70;;;;;;5018159;28;20521;-55
2022/03/01 02:18:36;;;;;;;17.45;10.02;;;1.40;94.90;;;;;;5013514;28;20557;-49
2022/03/01 02:21:02;;;;;;;15.80;9.65;;;1.40;94.80;;;;;;5013230;28;20081;-54
2022/03/01 02:23:28;;;;;;;15.85;9.77;;;1.30;94.90;;;;;;5011692;28;20069;-52
2022/03/01 02:25:54;;;;;;;16.95;10.25;;;1.30;95.00;;;;;;5018825;28;20045;-55
2022/03/01 02:28:19;;;;;;;18.17;10.35;;;1.30;94.90;;;;;;5030085;28;20464;-55
2022/03/01 02:30:45;;;;;;;17.02;11.25;;;1.30;95.00;;;;;;5032274;28;20033;-52
2022/03/01 02:33:10;;;;;;;16.30;9.88;;;1.20;95.00;;;;;;5014441;28;20052;-54
2022/03/01 02:35:36;;;;;;;15.13;10.23;;;1.20;94.90;;;;;;5032155;28;20076;-52
2022/03/01 02:38:03;;;;;;;15.75;9.75;;;1.10;95.00;;;;;;5031059;28;20040;-53
2022/03/01 02:40:29;;;;;;;20.45;10.05;;;1.10;95.20;;;;;;5032070;28;20432;-56
2022/03/01 02:42:55;;;;;;;18.88;10.60;;;1.10;95.30;;;;;;5012290;28;20041;-56
2022/03/01 02:45:20;;;;;;;16.02;9.95;;;1.10;95.40;;;;;;5012461;28;20088;-53
2022/03/01 02:47:46;;;;;;;15.70;9.65;;;1.10;95.50;;;;;;5012595;28;20141;-52
2022/03/01 02:50:13;;;;;;;20.02;10.25;;;1.00;95.40;;;;;;5012374;28;20508;-52
2022/03/01 02:52:39;;;;;;;17.10;9.32;;;1.00;95.20;;;;;;5012719;28;20057;-55
2022/03/01 02:55:05;;;;;;;16.20;9.70;;;1.00;95.40;;;;;;4998593;28;20380;-52
2022/03/01 02:57:31;;;;;;;17.50;10.05;;;1.00;95.50;;;;;;5016683;28;20569;-53
2022/03/01 02:59:57;;;;;;;16.60;9.82;;;1.00;95.60;;;;;;5016446;28;20391;-54
2022/03/01 03:02:23;;;;;;;19.08;10.15;;;1.00;95.30;;;;;;5016184;28;20037;-55
2022/03/01 03:04:49;;;;;;;14.57;9.25;;;0.90;95.40;;;;;;5034891;28;20033;-50
2022/03/01 03:07:14;;;;;;;15.25;9.57;;;1.00;95.20;;;;;;5035493;28;20034;-53
2022/03/01 03:09:40;;;;;;;15.25;9.80;;;0.90;95.20;;;;;;5035321;28;20061;-52
2022/03/01 03:12:06;;;;;;;17.02;9.30;;;0.90;95.10;;;;;;5035224;28;20053;-51
2022/03/01 03:14:32;;;;;;;16.25;10.15;;;1.00;95.10;;;;;;5035892;28;20026;-55
2022/03/01 03:16:58;;;;;;;18.13;10.15;;;0.90;94.90;;;;;;5035851;28;20556;-52
2022/03/01 03:19:24;;;;;;;15.93;10.43;;;0.80;95.10;;;;;;5035544;28;20591;-55
2022/03/01 03:21:50;;;;;;;18.58;9.70;;;0.80;95.40;;;;;;5036151;28;20060;-54
2022/03/01 03:24:16;;;;;;;17.45;10.10;;;0.80;95.40;;;;;;5035694;28;20034;-54
2022/03/01 03:26:42;;;;;;;16.77;9.80;;;0.70;95.50;;;;;;5035448;28;20582;-55
2022/03/01 03:29:09;;;;;;;17.05;9.98;;;0.70;95.40;;;;;;5017269;28;20029;-54
2022/03/01 03:31:39;;;;;;;17.15;10.27;;;0.70;95.50;;;;;;5035268;28;20060;-54
2022/03/01 03:34:07;;;;;;;16.90;9.48;;;0.60;95.50;;;;;;5034659;28;20033;-52
2022/03/01 03:36:34;;;;;;;18.15;9.90;;;0.60;95.70;;;;;;5034877;28;20034;-54
2022/03/01 03:39:00;;;;;;;16.27;10.02;;;0.60;95.90;;;;;;5034500;28;20068;-55
2022/03/01 03:41:27;;;;;;;14.63;10.70;;;0.60;95.80;;;;;;5036213;28;20029;-52
2022/03/01 03:43:52;;;;;;;16.23;9.63;;;0.50;96.00;;;;;;5035219;28;20045;-55
2022/03/01 03:46:18;;;;;;;13.80;9.50;;;0.50;96.10;;;;;;5035258;28;20485;-54
2022/03/01 03:48:44;;;;;;;15.55;10.30;;;0.50;96.10;;;;;;5032298;28;20393;-57
2022/03/01 03:51:09;;;;;;;15.55;9.55;;;0.40;96.20;;;;;;5034010;28;20026;-54
2022/03/01 03:53:35;;;;;;;17.83;9.82;;;0.50;96.10;;;;;;5033795;28;20501;-54
2022/03/01 03:56:00;;;;;;;16.73;10.25;;;0.50;96.20;;;;;;5035126;28;20026;-55
2022/03/01 03:58:26;;;;;;;16.38;10.52;;;0.50;96.30;;;;;;5034632;28;20037;-55
2022/03/01 04:00:51;;;;;;;16.55;10.18;;;0.50;96.00;;;;;;5017357;28;20057;-55
2022/03/01 04:03:17;;;;;;;16.58;9.52;;;0.40;96.30;;;;;;5034212;28;20057;-55
2022/03/01 04:05:43;;;;;;;19.58;10.80;;;0.40;96.20;;;;;;5034196;28;20033;-55
2022/03/01 04:08:10;;;;;;;18.25;9.88;;;0.40;96.30;;;;;;5033928;28;20030;-55
2022/03/01 04:10:35;;;;;;;15.10;10.02;;;0.50;96.10;;;;;;5034513;28;20124;-55
2022/03/01 04:13:01;;;;;;;14.98;9.98;;;0.50;95.90;;;;;;5034272;28;20116;-54
2022/03/01 04:15:27;;;;;;;19.60;11.43;;;0.50;95.80;;;;;;5034121;28;20025;-54
2022/03/01 04:17:52;;;;;;;17.55;10.48;;;0.50;95.70;;;;;;5033973;28;20497;-52
2022/03/01 04:20:21;;;;;;;16.00;9.48;;;0.50;95.70;;;;;;5016136;28;20413;-53
2022/03/01 04:22:47;;;;;;;13.95;10.43;;;0.40;95.60;;;;;;5034066;28;20037;-56
2022/03/01 04:25:13;;;;;;;16.92;10.80;;;0.40;95.70;;;;;;5033950;28;20031;-56
2022/03/01 04:27:39;;;;;;;15.32;10.07;;;0.50;95.60;;;;;;5016207;28;20052;-55
2022/03/01 04:30:06;;;;;;;14.27;9.77;;;0.50;95.70;;;;;;5033707;28;20117;-55
2022/03/01 04:32:32;;;;;;;17.55;10.02;;;0.50;95.70;;;;;;5033813;28;20028;-52
2022/03/01 04:34:57;;;;;;;15.25;9.40;;;0.50;95.40;;;;;;5033981;28;20030;-55
2022/03/01 04:37:23;;;;;;;17.67;9.57;;;0.60;95.30;;;;;;5034117;28;20509;-54
2022/03/01 04:39:48;;;;;;;15.65;10.23;;;0.60;95.20;;;;;;5034744;28;20034;-55
2022/03/01 04:42:14;;;;;;;17.95;10.40;;;0.60;95.10;;;;;;5020195;28;20117;-57
2022/03/01 04:44:39;;;;;;;17.88;10.68;;;0.60;95.00;;;;;;5014599;28;20033;-55
2022/03/01 04:47:05;;;;;;;16.35;10.50;;;0.50;94.90;;;;;;5014790;28;20065;-50
2022/03/01 04:49:32;;;;;;;15.60;10.00;;;0.60;94.90;;;;;;5014478;28;20034;-53
2022/03/01 04:51:58;;;;;;;16.17;10.32;;;0.50;95.10;;;;;;5014058;28;20068;-54
2022/03/01 04:54:23;;;;;;;14.43;9.48;;;0.40;95.00;;;;;;5014197;28;20062;-54
2022/03/01 04:56:49;;;;;;;15.90;9.80;;;0.50;95.10;;;;;;5013981;28;20022;-56
2022/03/01 04:59:14;;;;;;;16.38;9.52;;;0.50;94.90;;;;;;5014327;28;20137;-54
2022/03/01 05:01:40;;;;;;;15.77;10.23;;;0.50;94.80;;;;;;5014151;28;20088;-55
2022/03/01 05:04:05;;;;;;;14.60;10.50;;;0.50;94.80;;;;;;5026288;28;20063;-53
2022/03/01 05:06:31;;;;;;;16.63;10.48;;;0.40;95.00;;;;;;5033451;28;20041;-55
2022/03/01 05:08:57;;;;;;;16.17;10.13;;;0.40;95.10;;;;;;5034012;28;20030;-53
2022/03/01 05:11:22;;;;;;;13.90;9.15;;;0.40;95.00;;;;;;5033815;28;20025;-55
2022/03/01 05:13:48;;;;;;;17.17;10.18;;;0.40;95.10;;;;;;5016070;28;20480;-56
2022/03/01 05:16:14;;;;;;;15.30;10.00;;;0.40;95.00;;;;;;5031373;28;20115;-52
2022/03/01 05:18:39;;;;;;;19.70;10.32;;;0.40;95.20;;;;;;5014574;28;20025;-55
2022/03/01 05:21:05;;;;;;;19.20;10.25;;;0.40;95.20;;;;;;5013662;28;20069;-56
2022/03/01 05:23:30;;;;;;;16.75;10.82;;;0.40;95.20;;;;;;5013286;28;20042;-56
2022/03/01 05:25:56;;;;;;;16.70;10.23;;;0.40;95.20;;;;;;5020868;28;20076;-55
2022/03/01 05:28:22;;;;;;;22.00;11.50;;;0.30;95.40;;;;;;5033324;28;20061;-57
2022/03/01 05:30:47;;;;;;;18.50;10.60;;;0.30;95.50;;;;;;5033504;28;20036;-57
2022/03/01 05:33:13;;;;;;;15.63;10.60;;;0.30;95.50;;;;;;5033590;28;20030;-55
2022/03/01 05:35:38;;;;;;;16.73;10.50;;;0.30;95.30;;;;;;5032968;28;20030;-53
2022/03/01 05:38:07;;;;;;;21.20;10.82;;;0.20;95.40;;;;;;5033413;28;20025;-57
2022/03/01 05:40:32;;;;;;;20.48;11.43;;;0.20;95.60;;;;;;4999259;28;20124;-55
2022/03/01 05:42:59;;;;;;;21.20;11.73;;;0.30;95.50;;;;;;5013397;28;20509;-53
2022/03/01 05:45:26;;;;;;;17.38;9.73;;;0.30;95.50;;;;;;4995910;28;20037;-54
2022/03/01 05:47:52;;;;;;;19.00;9.55;;;0.30;95.50;;;;;;5013588;28;20033;-57
2022/03/01 05:50:18;;;;;;;19.55;10.60;;;0.30;95.40;;;;;;5013337;28;20482;-57
2022/03/01 05:52:45;;;;;;;16.10;9.90;;;0.20;95.60;;;;;;5016076;28;20091;-55
2022/03/01 05:55:11;;;;;;;17.25;9.63;;;0.20;95.60;;;;;;5013350;28;20110;-57
2022/03/01 05:57:37;;;;;;;18.83;11.10;;;0.20;95.70;;;;;;5013776;28;20104;-54
2022/03/01 06:00:07;;;;;;;18.65;10.57;;;0.20;95.80;;;;;;4996223;28;20042;-57
2022/03/01 06:02:33;;;;;;;21.63;11.07;;;0.20;95.80;;;;;;5013812;28;20033;-54
2022/03/01 06:04:59;;;;;;;18.88;10.60;;;0.10;95.70;;;;;;5032959;28;20037;-54
2022/03/01 06:07:24;;;;;;;17.50;10.38;;;0.10;95.90;;;;;;5033312;28;20076;-54
2022/03/01 06:09:50;;;;;;;17.60;9.90;;;0.10;95.90;;;;;;5019564;28;20107;-54
2022/03/01 06:12:16;;;;;;;18.05;10.50;;;0.10;95.80;;;;;;5012455;28;20080;-52
2022/03/01 06:14:42;;;;;;;19.38;10.70;;;0.10;95.90;;;;;;5004732;28;20382;-54
2022/03/01 06:17:08;;;;;;;29.23;11.55;;;0.20;95.80;;;;;;5012541;28;20029;-57
2022/03/01 06:19:33;;;;;;;17.35;10.52;;;0.10;95.90;;;;;;5014944;28;20077;-54
2022/03/01 06:21:59;;;;;;;19.55;11.80;;;0.10;95.80;;;;;;5013654;28;20144;-55
2022/03/01 06:24:25;;;;;;;16.83;9.80;;;0.20;95.80;;;;;;5013986;28;20375;-54
2022/03/01 06:26:51;;;;;;;20.38;10.65;;;0.20;95.70;;;;;;5028957;28;20096;-53
2022/03/01 06:29:16;;;;;;;21.50;10.75;;;0.20;95.80;;;;;;5034818;28;20067;-51
2022/03/01 06:31:42;;;;;;;17.15;10.88;;;0.20;95.80;;;;;;5019635;28;20057;-55
2022/03/01 06:34:08;;;;;;;31.60;11.98;;;0.30;95.80;;;;;;5017077;28;20089;-52
2022/03/01 06:36:33;;;;;;;19.27;11.02;;;0.20;95.80;;;;;;5018604;28;20056;-52
2022/03/01 06:38:59;;;;;;;21.65;11.10;;;0.20;95.80;;;;;;5036089;28;20041;-54
2022/03/01 06:41:25;;;;;;;18.23;10.43;;;0.40;95.60;;;;;;5015412;28;20045;-52
2022/03/01 06:43:50;;;;;;;18.30;10.43;;;0.30;95.50;;;;;;5034780;28;20459;-55
2022/03/01 06:46:16;;;;;;;20.73;10.05;;;0.40;95.50;;;;;;5034453;28;20048;-53
2022/03/01 06:48:42;;;;;;;18.95;10.55;;;0.50;95.30;;;;;;5019260;28;20405;-50
2022/03/01 06:51:10;;;;;;;16.85;10.10;;;0.50;95.40;;;;;;5010307;28;20026;-57
2022/03/01 06:53:36;;;;;;;29.20;12.70;;;0.60;95.20;;;;;;5015894;28;20045;-52
2022/03/01 06:56:03;;;;;;;16.65;10.10;;;0.70;95.00;;;;;;5015991;28;20094;-54
2022/03/01 06:58:29;;;;;;;18.05;10.80;;;0.70;94.80;;;;;;5016140;28;20038;-50
2022/03/01 07:00:56;;;;;;;17.48;10.57;;;0.60;94.90;;;;;;5016025;28;20034;-52
2022/03/01 07:03:22;;;;;;;17.85;11.13;;;0.60;95.00;;;;;;5022069;28;20057;-55
2022/03/01 07:05:48;;;;;;;20.17;12.32;;;0.70;95.00;;;;;;5016637;28;20030;-55
2022/03/01 07:08:14;;;;;;;27.88;12.25;;;0.90;94.70;;;;;;4999190;28;20034;-52
2022/03/01 07:10:41;;;;;;;20.45;11.77;;;0.90;94.50;;;;;;5013839;28;20041;-53
2022/03/01 07:13:07;;;;;;;27.42;11.40;;;0.90;94.60;;;;;;4997172;28;20033;-51
2022/03/01 07:15:33;;;;;;;24.00;11.95;;;0.90;94.40;;;;;;5015895;28;20030;-51
2022/03/01 07:18:00;;;;;;;16.17;11.30;;;0.90;94.50;;;;;;5013396;28;20040;-54
2022/03/01 07:20:25;;;;;;;19.35;12.02;;;0.90;94.30;;;;;;5014358;28;20497;-56
2022/03/01 07:22:51;;;;;;;20.25;11.38;;;0.90;94.30;;;;;;4996463;28;20030;-53
2022/03/01 07:25:16;;;;;;;18.42;11.48;;;0.90;94.10;;;;;;5019525;28;20121;-50
2022/03/01 07:27:47;;;;;;;21.08;13.00;;;1.00;94.10;;;;;;5015056;28;20053;-54
2022/03/01 07:30:13;;;;;;;22.85;11.57;;;1.00;94.20;;;;;;5014299;28;20060;-53
2022/03/01 07:32:38;;;;;;;24.65;12.77;;;1.00;93.90;;;;;;4998104;28;20513;-50
2022/03/01 07:35:04;;;;;;;25.67;13.35;;;1.10;93.80;;;;;;5015435;28;20042;-50
2022/03/01 07:37:31;;;;;;;23.65;14.63;;;1.10;93.90;;;;;;5015087;28;20407;-51
2022/03/01 07:39:58;;;;;;;22.83;11.80;;;1.10;93.90;;;;;;5014846;28;20444;-52
2022/03/01 07:42:24;;;;;;;17.67;12.07;;;1.10;93.90;;;;;;5031125;28;20066;-53
2022/03/01 07:44:49;;;;;;;19.58;11.75;;;1.20;93.80;;;;;;5017324;28;20038;-54
2022/03/01 07:47:15;;;;;;;26.23;12.15;;;1.20;93.60;;;;;;5019445;28;20114;-57
2022/03/01 07:49:42;;;;;;;37.28;13.00;;;1.30;93.70;;;;;;5015537;28;20645;-51
2022/03/01 07:52:08;;;;;;;27.23;12.65;;;1.30;93.50;;;;;;5022101;28;20026;-54
2022/03/01 07:54:33;;;;;;;19.85;12.38;;;1.40;93.60;;;;;;5014712;28;20042;-53
2022/03/01 07:56:59;;;;;;;19.63;11.48;;;1.40;93.60;;;;;;4998209;28;20034;-55
2022/03/01 07:59:24;;;;;;;18.67;11.95;;;1.40;93.50;;;;;;5014637;28;20125;-51
2022/03/01 08:01:50;;;;;;;35.80;13.38;;;1.50;93.40;;;;;;4995214;28;20048;-54
2022/03/01 08:04:16;;;;;;;50.20;16.13;;;1.60;93.30;;;;;;4992726;28;20045;-53
2022/03/01 08:06:41;;;;;;;40.45;19.20;;;1.70;93.10;;;;;;4985552;28;20045;-57
2022/03/01 08:09:07;;;;;;;21.75;12.73;;;1.70;93.10;;;;;;4995892;28;20069;-53
2022/03/01 08:11:33;;;;;;;21.40;12.00;;;1.70;92.80;;;;;;5007481;28;20040;-49
2022/03/01 08:13:58;;;;;;;26.55;13.25;;;1.70;92.90;;;;;;5014466;28;20076;-55
2022/03/01 08:16:24;;;;;;;18.00;12.88;;;1.70;92.90;;;;;;5013441;28;20034;-52
2022/03/01 08:18:49;;;;;;;21.25;12.32;;;1.80;92.90;;;;;;5012674;28;20076;-54
2022/03/01 08:21:15;;;;;;;22.60;12.10;;;1.90;92.70;;;;;;5013929;28;20041;-53
2022/03/01 08:23:42;;;;;;;21.98;12.75;;;1.90;92.60;;;;;;5011015;28;20039;-55
2022/03/01 08:26:08;;;;;;;22.60;12.43;;;2.00;92.60;;;;;;5009097;28;20516;-53
2022/03/01 08:28:33;;;;;;;20.13;11.23;;;2.00;92.30;;;;;;5023305;28;20034;-53
2022/03/01 08:30:59;;;;;;;23.92;11.98;;;2.10;92.10;;;;;;5011495;28;20052;-53
2022/03/01 08:33:25;;;;;;;23.92;11.98;;;2.20;92.00;;;;;;5011268;28;20088;-55
2022/03/01 08:35:51;;;;;;;19.17;12.95;;;2.30;91.50;;;;;;5013561;28;20398;-53
2022/03/01 08:38:17;;;;;;;24.80;13.13;;;2.40;91.30;;;;;;5013137;28;20488;-53
2022/03/01 13:46:52;;;;;;;16.40;9.23;;;11.00;55.90;;;;;;5013301;28;20026;-54
2022/03/01 13:49:28;;;;;;;12.65;9.13;;;11.00;53.60;;;;;;5013140;28;20101;-52
2022/03/01 13:52:27;;;;;;;14.88;11.43;;;10.60;53.30;;;;;;5012866;28;20050;-53
2022/03/01 13:54:59;;;;;;;23.20;14.50;;;10.40;54.30;;;;;;4981650;28;20030;-56
2022/03/01 13:57:36;;;;;;;13.60;10.02;;;10.60;54.50;;;;;;5014065;28;20394;-53
2022/03/01 14:00:01;;;;;;;12.20;10.38;;;10.50;53.90;;;;;;5014110;28;20061;-52
2022/03/01 14:02:27;;;;;;;14.40;10.07;;;10.70;53.40;;;;;;5012996;28;20048;-55
2022/03/01 14:05:01;;;;;;;11.80;9.30;;;10.80;53.20;;;;;;4996078;28;20092;-54
2022/03/01 14:07:26;;;;;;;12.68;9.18;;;10.50;53.20;;;;;;5012817;28;20038;-53
2022/03/01 14:09:53;;;;;;;29.42;10.63;;;10.10;53.10;;;;;;5012901;28;20034;-51
2022/03/01 14:12:32;;;;;;;12.90;8.68;;;10.30;52.50;;;;;;5012717;28;20121;-55
2022/03/01 14:14:58;;;;;;;13.00;9.40;;;10.20;52.40;;;;;;5013064;28;20029;-54
2022/03/01 14:17:25;;;;;;;16.52;9.90;;;10.00;53.00;;;;;;5013057;28;20030;-50
2022/03/01 14:19:52;;;;;;;20.80;11.02;;;10.30;53.40;;;;;;5012447;28;20030;-50
2022/03/01 14:22:17;;;;;;;18.17;9.98;;;10.50;52.70;;;;;;5012665;28;20060;-52
2022/03/01 14:24:43;;;;;;;19.17;9.85;;;10.80;59.40;;;;;;5013550;28;20498;-52
2022/03/01 14:27:09;;;;;;;20.65;10.00;;;11.30;56.00;;;;;;5013711;28;20042;-53
2022/03/01 14:29:35;;;;;;;18.38;10.32;;;11.80;55.90;;;;;;5012921;28;20058;-54
2022/03/01 14:32:00;;;;;;;17.20;9.65;;;11.80;53.30;;;;;;5012942;28;20036;-53
2022/03/01 14:34:26;;;;;;;19.00;12.27;;;12.00;53.80;;;;;;5012140;28;20084;-54
2022/03/01 14:36:51;;;;;;;18.00;11.40;;;12.10;51.70;;;;;;5013247;28;20033;-55
2022/03/01 14:39:17;;;;;;;15.57;10.93;;;12.00;52.20;;;;;;5012037;28;20034;-50
2022/03/01 14:41:42;;;;;;;18.58;11.43;;;11.50;52.20;;;;;;5004812;28;20037;-53
2022/03/01 14:44:10;;;;;;;25.60;11.35;;;11.80;52.30;;;;;;4995466;28;20077;-56
2022/03/01 14:46:35;;;;;;;16.67;9.98;;;12.10;51.90;;;;;;5012805;28;20451;-51
2022/03/01 14:49:01;;;;;;;16.88;10.70;;;12.00;51.50;;;;;;5013841;28;20038;-54
2022/03/01 14:51:26;;;;;;;16.52;11.32;;;12.00;51.50;;;;;;5016450;28;20030;-54
2022/03/01 14:53:52;;;;;;;19.67;13.85;;;12.20;51.30;;;;;;5016052;28;20033;-49
2022/03/01 14:56:20;;;;;;;19.95;11.88;;;12.10;51.30;;;;;;5016215;28;20030;-52
2022/03/01 14:58:46;;;;;;;29.25;11.55;;;12.20;51.00;;;;;;5015836;28;20050;-52
2022/03/01 15:01:12;;;;;;;22.98;12.43;;;11.90;51.20;;;;;;5015844;28;20083;-50
2022/03/01 15:03:37;;;;;;;15.50;10.65;;;11.60;51.40;;;;;;5015843;28;20030;-49
2022/03/01 15:06:03;;;;;;;17.33;12.57;;;11.10;52.20;;;;;;5015692;28;20121;-52
2022/03/01 15:08:29;;;;;;;22.52;12.98;;;11.10;53.40;;;;;;5014902;28;20021;-50
2022/03/01 15:10:56;;;;;;;23.15;15.93;;;11.40;52.70;;;;;;5015918;28;20048;-52
2022/03/01 15:13:22;;;;;;;17.77;11.98;;;12.30;51.60;;;;;;5015516;28;20053;-56
2022/03/01 15:15:47;;;;;;;18.35;10.68;;;13.30;50.30;;;;;;5015836;28;20034;-54
2022/03/01 15:18:13;;;;;;;26.05;14.75;;;14.10;48.80;;;;;;5015728;28;20517;-49
2022/03/01 15:20:38;;;;;;;18.23;11.35;;;14.30;48.60;;;;;;4997809;28;20052;-50
2022/03/01 15:23:04;;;;;;;17.60;11.43;;;13.80;48.70;;;;;;5013528;28;20036;-54
2022/03/01 15:25:30;;;;;;;20.40;11.30;;;13.10;49.40;;;;;;5015066;28;20432;-52
2022/03/01 15:27:55;;;;;;;15.05;10.30;;;12.40;49.80;;;;;;5015026;28;20026;-53
2022/03/01 15:30:21;;;;;;;15.75;11.00;;;11.50;51.50;;;;;;4996608;28;20029;-53
2022/03/01 15:32:47;;;;;;;16.23;11.23;;;11.00;52.70;;;;;;5014360;28;20033;-52
2022/03/01 15:35:14;;;;;;;16.60;11.93;;;10.40;53.80;;;;;;5027678;28;20374;-54
2022/03/01 15:37:40;;;;;;;16.33;11.90;;;9.90;55.10;;;;;;5034356;28;20053;-51
2022/03/01 15:40:07;;;;;;;18.65;12.38;;;9.70;55.20;;;;;;5016513;28;20468;-52
2022/03/01 15:42:34;;;;;;;17.98;12.57;;;9.60;55.40;;;;;;5017431;28;20425;-50
2022/03/01 15:45:00;;;;;;;14.93;10.95;;;9.60;55.80;;;;;;5015046;28;20026;-54
2022/03/01 15:47:26;;;;;;;14.77;10.80;;;9.40;56.30;;;;;;5016721;28;20398;-54
2022/03/01 15:49:51;;;;;;;16.02;10.43;;;9.30;56.50;;;;;;5013306;28;20030;-55
2022/03/01 15:52:21;;;;;;;17.30;11.00;;;9.10;58.20;;;;;;5019885;28;20085;-56
2022/03/01 15:54:47;;;;;;;15.40;10.23;;;9.00;57.30;;;;;;5019026;28;20017;-57
2022/03/01 15:57:13;;;;;;;15.63;10.63;;;8.90;57.60;;;;;;5018227;28;20030;-52
2022/03/01 15:59:39;;;;;;;13.80;10.25;;;8.70;57.30;;;;;;5013597;28;20113;-52
2022/03/01 16:02:05;;;;;;;17.08;10.55;;;8.60;58.10;;;;;;5015216;28;20033;-52
2022/03/01 16:04:31;;;;;;;19.02;11.07;;;8.50;58.10;;;;;;5014675;28;20103;-55
2022/03/01 16:06:57;;;;;;;18.65;11.48;;;8.40;58.40;;;;;;4997250;28;20041;-49
2022/03/01 16:09:23;;;;;;;15.18;11.52;;;8.30;58.80;;;;;;5014041;28;20470;-52
2022/03/01 16:11:49;;;;;;;20.20;11.25;;;8.20;59.00;;;;;;5014246;28;20083;-52
2022/03/01 16:14:14;;;;;;;18.83;11.10;;;8.10;59.10;;;;;;4996469;28;20060;-50
2022/03/01 16:16:41;;;;;;;16.65;10.88;;;8.00;59.50;;;;;;5013551;28;20058;-51
2022/03/01 16:19:07;;;;;;;14.25;11.20;;;8.10;59.80;;;;;;5013948;28;20046;-48
2022/03/01 16:21:33;;;;;;;14.40;10.80;;;8.20;59.70;;;;;;5012533;28;20413;-50
2022/03/01 16:23:59;;;;;;;15.05;10.63;;;8.40;59.50;;;;;;5013594;28;20384;-51
2022/03/01 16:26:25;;;;;;;15.95;10.32;;;8.40;59.50;;;;;;5013126;28;20053;-51
2022/03/01 16:28:51;;;;;;;13.40;10.60;;;8.30;59.50;;;;;;5014220;28;20029;-51
2022/03/01 16:31:17;;;;;;;15.40;11.52;;;8.20;59.90;;;;;;5014667;28;20426;-52
2022/03/01 16:33:42;;;;;;;15.25;11.80;;;8.10;60.10;;;;;;5015964;28;20497;-53
2022/03/01 16:36:09;;;;;;;17.52;11.15;;;7.90;60.30;;;;;;5033548;28;20033;-49
2022/03/01 16:38:35;;;;;;;16.63;11.82;;;7.80;60.60;;;;;;5034500;28;20041;-49
2022/03/01 16:41:03;;;;;;;15.88;11.27;;;7.70;60.80;;;;;;5029958;28;20026;-49
2022/03/01 16:43:29;;;;;;;22.25;12.88;;;7.70;60.90;;;;;;4996167;28;20037;-54
2022/03/01 16:45:55;;;;;;;20.20;13.18;;;7.60;61.00;;;;;;5015394;28;20121;-48
2022/03/01 16:48:21;;;;;;;18.92;13.55;;;7.60;60.70;;;;;;5021805;28;20513;-48
2022/03/01 16:50:47;;;;;;;16.35;12.43;;;7.40;60.70;;;;;;5013891;28;20062;-52
2022/03/01 16:53:13;;;;;;;19.52;13.10;;;7.40;60.80;;;;;;5024572;28;20061;-54
2022/03/01 16:55:38;;;;;;;14.85;11.68;;;7.40;60.90;;;;;;5011468;28;20025;-54
2022/03/01 16:58:04;;;;;;;20.00;12.75;;;7.40;61.10;;;;;;5014339;28;20033;-54
2022/03/01 17:00:32;;;;;;;20.23;12.73;;;7.40;61.30;;;;;;5016524;28;20030;-55
2022/03/01 17:03:01;;;;;;;28.88;12.98;;;7.30;61.50;;;;;;5016406;28;20040;-52
2022/03/01 17:05:27;;;;;;;20.27;12.07;;;7.30;61.50;;;;;;5015678;28;20057;-53
2022/03/01 17:07:54;;;;;;;20.52;11.80;;;7.30;61.60;;;;;;5014818;28;20509;-56
2022/03/01 17:10:19;;;;;;;19.38;12.43;;;7.20;61.90;;;;;;5015899;28;20072;-55
2022/03/01 17:12:45;;;;;;;20.27;11.85;;;7.20;62.20;;;;;;5014249;28;20288;-56
2022/03/01 17:15:11;;;;;;;16.77;11.73;;;7.20;61.90;;;;;;5014699;28;20092;-52
2022/03/01 17:17:37;;;;;;;16.77;12.02;;;7.20;62.00;;;;;;5012729;28;20034;-51
2022/03/01 17:20:05;;;;;;;18.42;11.68;;;7.20;62.00;;;;;;5010822;28;20414;-50
2022/03/01 17:22:31;;;;;;;16.95;12.02;;;7.20;62.00;;;;;;5012291;28;20032;-52
2022/03/01 17:24:56;;;;;;;19.48;12.80;;;7.20;62.10;;;;;;5010635;28;20034;-54
2022/03/01 17:27:22;;;;;;;23.13;13.25;;;7.20;62.10;;;;;;5023219;28;20113;-50
2022/03/01 17:29:47;;;;;;;20.27;13.88;;;7.00;62.10;;;;;;5032327;28;20049;-53
2022/03/01 17:32:13;;;;;;;24.63;15.18;;;7.00;62.40;;;;;;5011936;28;20033;-55
2022/03/01 17:34:39;;;;;;;40.67;24.98;;;7.00;62.50;;;;;;5012966;28;20323;-56
2022/03/01 17:37:07;;;;;;;63.78;34.90;;;7.00;62.70;;;;;;5012752;28;20092;-55
2022/03/01 17:39:33;;;;;;;31.35;20.35;;;7.00;63.00;;;;;;5011940;28;20040;-54